sensor_id;sensor_type;location;lat;lon;timestamp;P1;durP1;ratioP1;P2;durP2;ratioP2
10872;SDS011;34586;53.616;10.032;2023-02-15T00:00:01;81.20;;;41.33;;
10872;SDS011;34586;53.616;10.032;2023-02-15T00:02:28;66.80;;;39.07;;
10872;SDS011;34586;53.616;10.032;2023-02-15T00:04:53;66.30;;;39.03;;
10872;SDS011;34586;53.616;10.032;2023-02-15T00:07:20;73.47;;;42.70;;
10872;SDS011;34586;53.616;10.032;2023-02-15T00:09:46;66.63;;;40.70;;
10872;SDS011;34586;53.616;10.032;2023-02-15T00:12:13;78.20;;;40.83;;
10872;SDS011;34586;53.616;10.032;2023-02-15T00:14:39;74.57;;;42.97;;
10872;SDS011;34586;53.616;10.032;2023-02-15T00:17:05;88.27;;;42.53;;
10872;SDS011;34586;53.616;10.032;2023-02-15T00:19:30;76.67;;;44.53;;
10872;SDS011;34586;53.616;10.032;2023-02-15T00:21:56;74.50;;;43.90;;
10872;SDS011;34586;53.616;10.032;2023-02-15T00:24:22;90.00;;;43.27;;
10872;SDS011;34586;53.616;10.032;2023-02-15T00:26:47;79.60;;;44.20;;
10872;SDS011;34586;53.616;10.032;2023-02-15T00:29:14;75.23;;;43.73;;
10872;SDS011;34586;53.616;10.032;2023-02-15T00:31:41;76.57;;;43.93;;
10872;SDS011;34586;53.616;10.032;2023-02-15T00:34:10;77.90;;;44.37;;
10872;SDS011;34586;53.616;10.032;2023-02-15T00:36:36;82.37;;;42.73;;
10872;SDS011;34586;53.616;10.032;2023-02-15T00:39:01;80.13;;;42.20;;
10872;SDS011;34586;53.616;10.032;2023-02-15T00:41:29;82.40;;;44.63;;
10872;SDS011;34586;53.616;10.032;2023-02-15T00:43:56;82.77;;;44.40;;
10872;SDS011;34586;53.616;10.032;2023-02-15T00:46:21;78.67;;;43.57;;
10872;SDS011;34586;53.616;10.032;2023-02-15T00:48:47;76.37;;;42.87;;
10872;SDS011;34586;53.616;10.032;2023-02-15T00:51:13;72.93;;;42.30;;
10872;SDS011;34586;53.616;10.032;2023-02-15T00:53:38;84.57;;;43.30;;
10872;SDS011;34586;53.616;10.032;2023-02-15T00:56:04;70.10;;;41.53;;
10872;SDS011;34586;53.616;10.032;2023-02-15T00:58:29;68.77;;;40.73;;
10872;SDS011;34586;53.616;10.032;2023-02-15T01:01:01;82.60;;;42.97;;
10872;SDS011;34586;53.616;10.032;2023-02-15T01:03:28;71.17;;;41.60;;
10872;SDS011;34586;53.616;10.032;2023-02-15T01:05:54;77.20;;;41.70;;
10872;SDS011;34586;53.616;10.032;2023-02-15T01:08:20;74.97;;;42.07;;
10872;SDS011;34586;53.616;10.032;2023-02-15T01:10:45;79.80;;;42.43;;
10872;SDS011;34586;53.616;10.032;2023-02-15T01:13:12;76.17;;;42.57;;
10872;SDS011;34586;53.616;10.032;2023-02-15T01:15:39;73.43;;;42.53;;
10872;SDS011;34586;53.616;10.032;2023-02-15T01:18:04;77.43;;;42.67;;
10872;SDS011;34586;53.616;10.032;2023-02-15T01:20:33;81.23;;;42.63;;
10872;SDS011;34586;53.616;10.032;2023-02-15T01:23:01;86.47;;;41.30;;
10872;SDS011;34586;53.616;10.032;2023-02-15T01:25:27;73.63;;;41.53;;
10872;SDS011;34586;53.616;10.032;2023-02-15T01:27:53;74.77;;;42.60;;
10872;SDS011;34586;53.616;10.032;2023-02-15T01:30:18;98.87;;;42.43;;
10872;SDS011;34586;53.616;10.032;2023-02-15T01:32:44;67.23;;;40.97;;
10872;SDS011;34586;53.616;10.032;2023-02-15T01:35:10;102.00;;;42.77;;
10872;SDS011;34586;53.616;10.032;2023-02-15T01:37:36;70.83;;;40.03;;
10872;SDS011;34586;53.616;10.032;2023-02-15T01:40:03;71.53;;;40.47;;
10872;SDS011;34586;53.616;10.032;2023-02-15T01:42:30;77.93;;;41.83;;
10872;SDS011;34586;53.616;10.032;2023-02-15T01:44:57;80.80;;;43.37;;
10872;SDS011;34586;53.616;10.032;2023-02-15T01:52:27;75.27;;;41.00;;
10872;SDS011;34586;53.616;10.032;2023-02-15T01:54:54;71.90;;;42.37;;
10872;SDS011;34586;53.616;10.032;2023-02-15T01:57:21;75.03;;;40.67;;
10872;SDS011;34586;53.616;10.032;2023-02-15T01:59:49;66.97;;;40.97;;
10872;SDS011;34586;53.616;10.032;2023-02-15T02:02:19;72.93;;;41.20;;
10872;SDS011;34586;53.616;10.032;2023-02-15T02:04:51;75.67;;;42.07;;
10872;SDS011;34586;53.616;10.032;2023-02-15T02:10:24;77.93;;;41.83;;
10872;SDS011;34586;53.616;10.032;2023-02-15T02:12:52;70.20;;;40.80;;
10872;SDS011;34586;53.616;10.032;2023-02-15T02:15:21;72.67;;;40.43;;
10872;SDS011;34586;53.616;10.032;2023-02-15T02:20:52;74.97;;;41.97;;
10872;SDS011;34586;53.616;10.032;2023-02-15T02:36:13;67.13;;;40.40;;
10872;SDS011;34586;53.616;10.032;2023-02-15T02:47:13;74.50;;;40.40;;
10872;SDS011;34586;53.616;10.032;2023-02-15T02:49:41;75.60;;;42.93;;
10872;SDS011;34586;53.616;10.032;2023-02-15T02:55:04;70.07;;;40.37;;
10872;SDS011;34586;53.616;10.032;2023-02-15T02:57:59;73.17;;;40.00;;
10872;SDS011;34586;53.616;10.032;2023-02-15T03:00:45;77.47;;;42.07;;
10872;SDS011;34586;53.616;10.032;2023-02-15T03:06:18;82.30;;;41.47;;
10872;SDS011;34586;53.616;10.032;2023-02-15T03:09:01;70.80;;;40.40;;
10872;SDS011;34586;53.616;10.032;2023-02-15T03:11:32;71.30;;;40.83;;
10872;SDS011;34586;53.616;10.032;2023-02-15T03:13:58;78.87;;;42.13;;
10872;SDS011;34586;53.616;10.032;2023-02-15T03:16:24;72.90;;;37.70;;
10872;SDS011;34586;53.616;10.032;2023-02-15T03:21:28;94.03;;;39.33;;
10872;SDS011;34586;53.616;10.032;2023-02-15T03:24:14;72.07;;;38.83;;
10872;SDS011;34586;53.616;10.032;2023-02-15T03:26:46;64.83;;;38.17;;
10872;SDS011;34586;53.616;10.032;2023-02-15T03:29:15;71.50;;;40.13;;
10872;SDS011;34586;53.616;10.032;2023-02-15T03:31:45;71.67;;;39.27;;
10872;SDS011;34586;53.616;10.032;2023-02-15T03:34:14;68.47;;;38.83;;
10872;SDS011;34586;53.616;10.032;2023-02-15T03:39:37;62.63;;;39.10;;
10872;SDS011;34586;53.616;10.032;2023-02-15T03:42:10;67.40;;;38.53;;
10872;SDS011;34586;53.616;10.032;2023-02-15T03:47:25;63.57;;;37.43;;
10872;SDS011;34586;53.616;10.032;2023-02-15T03:50:07;63.77;;;36.83;;
10872;SDS011;34586;53.616;10.032;2023-02-15T03:53:05;66.87;;;38.87;;
10872;SDS011;34586;53.616;10.032;2023-02-15T03:55:34;71.90;;;41.07;;
10872;SDS011;34586;53.616;10.032;2023-02-15T03:58:00;75.93;;;40.67;;
10872;SDS011;34586;53.616;10.032;2023-02-15T04:00:47;65.80;;;39.70;;
10872;SDS011;34586;53.616;10.032;2023-02-15T04:03:42;69.27;;;39.27;;
10872;SDS011;34586;53.616;10.032;2023-02-15T04:06:17;75.03;;;40.07;;
10872;SDS011;34586;53.616;10.032;2023-02-15T04:08:43;79.03;;;39.93;;
10872;SDS011;34586;53.616;10.032;2023-02-15T04:11:27;68.40;;;39.57;;
10872;SDS011;34586;53.616;10.032;2023-02-15T04:13:53;71.57;;;38.97;;
10872;SDS011;34586;53.616;10.032;2023-02-15T04:16:22;64.83;;;38.57;;
10872;SDS011;34586;53.616;10.032;2023-02-15T04:18:48;68.50;;;38.57;;
10872;SDS011;34586;53.616;10.032;2023-02-15T04:21:32;67.00;;;36.70;;
10872;SDS011;34586;53.616;10.032;2023-02-15T04:24:17;64.17;;;37.27;;
10872;SDS011;34586;53.616;10.032;2023-02-15T04:27:02;59.50;;;35.77;;
10872;SDS011;34586;53.616;10.032;2023-02-15T04:29:29;63.90;;;37.37;;
10872;SDS011;34586;53.616;10.032;2023-02-15T04:31:57;60.20;;;36.97;;
10872;SDS011;34586;53.616;10.032;2023-02-15T04:34:26;69.77;;;38.83;;
10872;SDS011;34586;53.616;10.032;2023-02-15T04:36:52;68.10;;;37.87;;
10872;SDS011;34586;53.616;10.032;2023-02-15T04:39:18;68.23;;;39.70;;
10872;SDS011;34586;53.616;10.032;2023-02-15T04:41:44;72.37;;;40.53;;
10872;SDS011;34586;53.616;10.032;2023-02-15T04:44:09;70.27;;;39.47;;
10872;SDS011;34586;53.616;10.032;2023-02-15T04:46:35;68.30;;;38.63;;
10872;SDS011;34586;53.616;10.032;2023-02-15T04:49:01;76.80;;;41.53;;
10872;SDS011;34586;53.616;10.032;2023-02-15T04:51:27;66.90;;;38.67;;
10872;SDS011;34586;53.616;10.032;2023-02-15T04:53:53;61.33;;;37.53;;
10872;SDS011;34586;53.616;10.032;2023-02-15T04:56:19;65.03;;;36.27;;
10872;SDS011;34586;53.616;10.032;2023-02-15T04:58:45;59.47;;;35.63;;
10872;SDS011;34586;53.616;10.032;2023-02-15T05:01:10;67.90;;;36.87;;
10872;SDS011;34586;53.616;10.032;2023-02-15T05:03:36;58.93;;;35.17;;
10872;SDS011;34586;53.616;10.032;2023-02-15T05:06:02;65.83;;;37.70;;
10872;SDS011;34586;53.616;10.032;2023-02-15T05:08:29;72.33;;;37.07;;
10872;SDS011;34586;53.616;10.032;2023-02-15T05:10:55;59.70;;;35.87;;
10872;SDS011;34586;53.616;10.032;2023-02-15T05:13:21;64.97;;;39.00;;
10872;SDS011;34586;53.616;10.032;2023-02-15T05:15:50;59.30;;;35.47;;
10872;SDS011;34586;53.616;10.032;2023-02-15T05:18:17;59.23;;;36.17;;
10872;SDS011;34586;53.616;10.032;2023-02-15T05:20:44;57.50;;;35.93;;
10872;SDS011;34586;53.616;10.032;2023-02-15T05:23:10;56.47;;;35.03;;
10872;SDS011;34586;53.616;10.032;2023-02-15T05:25:35;57.07;;;35.87;;
10872;SDS011;34586;53.616;10.032;2023-02-15T05:28:20;56.53;;;34.90;;
10872;SDS011;34586;53.616;10.032;2023-02-15T05:30:50;69.33;;;35.50;;
10872;SDS011;34586;53.616;10.032;2023-02-15T05:33:37;52.83;;;33.13;;
10872;SDS011;34586;53.616;10.032;2023-02-15T05:36:03;53.80;;;34.20;;
10872;SDS011;34586;53.616;10.032;2023-02-15T05:38:30;60.83;;;33.93;;
10872;SDS011;34586;53.616;10.032;2023-02-15T05:40:56;57.53;;;34.93;;
10872;SDS011;34586;53.616;10.032;2023-02-15T05:43:22;57.03;;;33.97;;
10872;SDS011;34586;53.616;10.032;2023-02-15T05:45:52;54.33;;;31.47;;
10872;SDS011;34586;53.616;10.032;2023-02-15T05:48:19;48.73;;;30.70;;
10872;SDS011;34586;53.616;10.032;2023-02-15T05:50:46;48.10;;;32.00;;
10872;SDS011;34586;53.616;10.032;2023-02-15T05:53:24;59.13;;;33.17;;
10872;SDS011;34586;53.616;10.032;2023-02-15T05:55:50;53.47;;;32.80;;
10872;SDS011;34586;53.616;10.032;2023-02-15T05:58:16;53.10;;;33.43;;
10872;SDS011;34586;53.616;10.032;2023-02-15T06:00:41;51.93;;;32.87;;
10872;SDS011;34586;53.616;10.032;2023-02-15T06:03:07;55.70;;;33.50;;
10872;SDS011;34586;53.616;10.032;2023-02-15T06:05:32;61.83;;;33.33;;
10872;SDS011;34586;53.616;10.032;2023-02-15T06:07:58;59.33;;;32.47;;
10872;SDS011;34586;53.616;10.032;2023-02-15T06:10:24;61.33;;;32.27;;
10872;SDS011;34586;53.616;10.032;2023-02-15T06:12:49;50.40;;;32.60;;
10872;SDS011;34586;53.616;10.032;2023-02-15T06:15:15;62.23;;;32.73;;
10872;SDS011;34586;53.616;10.032;2023-02-15T06:17:41;54.47;;;33.17;;
10872;SDS011;34586;53.616;10.032;2023-02-15T06:20:07;53.83;;;32.50;;
10872;SDS011;34586;53.616;10.032;2023-02-15T06:22:34;49.87;;;32.73;;
10872;SDS011;34586;53.616;10.032;2023-02-15T06:24:59;48.47;;;30.07;;
10872;SDS011;34586;53.616;10.032;2023-02-15T06:27:25;59.07;;;31.33;;
10872;SDS011;34586;53.616;10.032;2023-02-15T06:29:51;51.60;;;29.13;;
10872;SDS011;34586;53.616;10.032;2023-02-15T06:32:16;49.53;;;30.87;;
10872;SDS011;34586;53.616;10.032;2023-02-15T06:34:42;50.10;;;30.77;;
10872;SDS011;34586;53.616;10.032;2023-02-15T06:37:07;65.63;;;32.10;;
10872;SDS011;34586;53.616;10.032;2023-02-15T06:39:33;46.87;;;30.30;;
10872;SDS011;34586;53.616;10.032;2023-02-15T06:41:59;51.70;;;32.00;;
10872;SDS011;34586;53.616;10.032;2023-02-15T06:44:24;49.60;;;29.60;;
10872;SDS011;34586;53.616;10.032;2023-02-15T06:46:50;55.37;;;31.90;;
10872;SDS011;34586;53.616;10.032;2023-02-15T06:49:16;59.90;;;31.67;;
10872;SDS011;34586;53.616;10.032;2023-02-15T06:51:41;51.83;;;32.70;;
10872;SDS011;34586;53.616;10.032;2023-02-15T06:54:07;57.90;;;32.37;;
10872;SDS011;34586;53.616;10.032;2023-02-15T06:56:33;53.67;;;33.00;;
10872;SDS011;34586;53.616;10.032;2023-02-15T06:58:58;50.90;;;31.10;;
10872;SDS011;34586;53.616;10.032;2023-02-15T07:01:24;52.80;;;32.77;;
10872;SDS011;34586;53.616;10.032;2023-02-15T07:03:49;53.93;;;31.47;;
10872;SDS011;34586;53.616;10.032;2023-02-15T07:06:16;77.90;;;30.97;;
10872;SDS011;34586;53.616;10.032;2023-02-15T07:08:42;62.63;;;31.77;;
10872;SDS011;34586;53.616;10.032;2023-02-15T07:11:07;57.03;;;30.90;;
10872;SDS011;34586;53.616;10.032;2023-02-15T07:13:51;45.30;;;30.50;;
10872;SDS011;34586;53.616;10.032;2023-02-15T07:16:18;47.20;;;31.13;;
10872;SDS011;34586;53.616;10.032;2023-02-15T07:18:43;48.00;;;30.77;;
10872;SDS011;34586;53.616;10.032;2023-02-15T07:21:09;56.77;;;31.60;;
10872;SDS011;34586;53.616;10.032;2023-02-15T07:23:35;49.80;;;31.07;;
10872;SDS011;34586;53.616;10.032;2023-02-15T07:26:02;55.67;;;32.07;;
10872;SDS011;34586;53.616;10.032;2023-02-15T07:28:29;54.30;;;31.30;;
10872;SDS011;34586;53.616;10.032;2023-02-15T07:30:55;50.83;;;32.37;;
10872;SDS011;34586;53.616;10.032;2023-02-15T07:33:20;44.20;;;30.67;;
10872;SDS011;34586;53.616;10.032;2023-02-15T07:35:49;50.47;;;32.60;;
10872;SDS011;34586;53.616;10.032;2023-02-15T07:38:16;51.83;;;31.77;;
10872;SDS011;34586;53.616;10.032;2023-02-15T07:40:43;53.33;;;30.97;;
10872;SDS011;34586;53.616;10.032;2023-02-15T07:43:09;50.00;;;32.13;;
10872;SDS011;34586;53.616;10.032;2023-02-15T07:45:35;54.60;;;33.33;;
10872;SDS011;34586;53.616;10.032;2023-02-15T07:48:02;53.70;;;30.87;;
10872;SDS011;34586;53.616;10.032;2023-02-15T07:50:28;49.83;;;29.83;;
10872;SDS011;34586;53.616;10.032;2023-02-15T07:52:53;50.80;;;30.53;;
10872;SDS011;34586;53.616;10.032;2023-02-15T07:55:19;48.57;;;31.13;;
10872;SDS011;34586;53.616;10.032;2023-02-15T07:57:45;49.13;;;31.70;;
10872;SDS011;34586;53.616;10.032;2023-02-15T08:00:13;47.63;;;32.07;;
10872;SDS011;34586;53.616;10.032;2023-02-15T08:02:41;49.07;;;29.63;;
10872;SDS011;34586;53.616;10.032;2023-02-15T08:05:12;43.90;;;29.97;;
10872;SDS011;34586;53.616;10.032;2023-02-15T08:07:37;48.13;;;30.30;;
10872;SDS011;34586;53.616;10.032;2023-02-15T08:10:03;53.30;;;30.50;;
10872;SDS011;34586;53.616;10.032;2023-02-15T08:12:29;47.30;;;30.70;;
10872;SDS011;34586;53.616;10.032;2023-02-15T08:14:55;48.63;;;31.00;;
10872;SDS011;34586;53.616;10.032;2023-02-15T08:17:20;47.70;;;30.77;;
10872;SDS011;34586;53.616;10.032;2023-02-15T08:19:46;60.43;;;32.03;;
10872;SDS011;34586;53.616;10.032;2023-02-15T08:22:13;48.23;;;30.73;;
10872;SDS011;34586;53.616;10.032;2023-02-15T08:24:39;46.73;;;31.23;;
10872;SDS011;34586;53.616;10.032;2023-02-15T08:27:06;47.83;;;30.20;;
10872;SDS011;34586;53.616;10.032;2023-02-15T08:29:33;45.93;;;29.33;;
10872;SDS011;34586;53.616;10.032;2023-02-15T08:32:02;49.57;;;30.73;;
10872;SDS011;34586;53.616;10.032;2023-02-15T08:34:30;72.17;;;31.60;;
10872;SDS011;34586;53.616;10.032;2023-02-15T08:36:58;50.50;;;31.00;;
10872;SDS011;34586;53.616;10.032;2023-02-15T08:39:23;60.47;;;30.80;;
10872;SDS011;34586;53.616;10.032;2023-02-15T08:41:49;63.33;;;32.97;;
10872;SDS011;34586;53.616;10.032;2023-02-15T08:44:15;57.13;;;33.90;;
10872;SDS011;34586;53.616;10.032;2023-02-15T08:46:43;49.07;;;32.53;;
10872;SDS011;34586;53.616;10.032;2023-02-15T08:49:11;48.77;;;33.00;;
10872;SDS011;34586;53.616;10.032;2023-02-15T08:51:38;62.37;;;32.07;;
10872;SDS011;34586;53.616;10.032;2023-02-15T08:54:05;48.03;;;30.97;;
10872;SDS011;34586;53.616;10.032;2023-02-15T08:56:37;45.87;;;31.53;;
10872;SDS011;34586;53.616;10.032;2023-02-15T08:59:04;58.63;;;31.07;;
10872;SDS011;34586;53.616;10.032;2023-02-15T09:01:32;53.13;;;29.93;;
10872;SDS011;34586;53.616;10.032;2023-02-15T09:03:59;50.53;;;32.17;;
10872;SDS011;34586;53.616;10.032;2023-02-15T09:06:27;46.30;;;31.83;;
10872;SDS011;34586;53.616;10.032;2023-02-15T09:08:53;49.07;;;31.13;;
10872;SDS011;34586;53.616;10.032;2023-02-15T09:13:51;54.03;;;31.53;;
10872;SDS011;34586;53.616;10.032;2023-02-15T09:16:19;47.23;;;32.97;;
10872;SDS011;34586;53.616;10.032;2023-02-15T09:18:45;41.07;;;28.47;;
10872;SDS011;34586;53.616;10.032;2023-02-15T09:21:13;48.23;;;31.63;;
10872;SDS011;34586;53.616;10.032;2023-02-15T09:23:44;46.13;;;31.43;;
10872;SDS011;34586;53.616;10.032;2023-02-15T09:26:17;42.63;;;30.70;;
10872;SDS011;34586;53.616;10.032;2023-02-15T09:28:45;45.20;;;30.13;;
10872;SDS011;34586;53.616;10.032;2023-02-15T09:33:40;44.77;;;29.97;;
10872;SDS011;34586;53.616;10.032;2023-02-15T09:36:20;45.53;;;31.13;;
10872;SDS011;34586;53.616;10.032;2023-02-15T09:38:47;45.63;;;29.67;;
10872;SDS011;34586;53.616;10.032;2023-02-15T09:55:43;43.03;;;29.67;;
10872;SDS011;34586;53.616;10.032;2023-02-15T10:03:47;46.30;;;30.83;;
10872;SDS011;34586;53.616;10.032;2023-02-15T10:06:23;48.40;;;32.53;;
10872;SDS011;34586;53.616;10.032;2023-02-15T10:09:02;46.40;;;32.47;;
10872;SDS011;34586;53.616;10.032;2023-02-15T10:11:36;49.70;;;33.23;;
10872;SDS011;34586;53.616;10.032;2023-02-15T10:22:32;49.83;;;32.70;;
10872;SDS011;34586;53.616;10.032;2023-02-15T10:25:19;50.17;;;34.37;;
10872;SDS011;34586;53.616;10.032;2023-02-15T10:28:06;47.70;;;34.10;;
10872;SDS011;34586;53.616;10.032;2023-02-15T10:44:14;41.27;;;30.47;;
10872;SDS011;34586;53.616;10.032;2023-02-15T10:52:19;54.53;;;35.40;;
10872;SDS011;34586;53.616;10.032;2023-02-15T11:00:13;48.40;;;32.63;;
10872;SDS011;34586;53.616;10.032;2023-02-15T11:08:24;48.70;;;34.07;;
10872;SDS011;34586;53.616;10.032;2023-02-15T11:10:55;51.10;;;33.70;;
10872;SDS011;34586;53.616;10.032;2023-02-15T11:13:26;49.00;;;34.03;;
10872;SDS011;34586;53.616;10.032;2023-02-15T11:16:15;51.10;;;34.93;;
10872;SDS011;34586;53.616;10.032;2023-02-15T11:18:48;45.60;;;32.70;;
10872;SDS011;34586;53.616;10.032;2023-02-15T11:24:12;52.67;;;35.27;;
10872;SDS011;34586;53.616;10.032;2023-02-15T11:26:42;43.83;;;33.03;;
10872;SDS011;34586;53.616;10.032;2023-02-15T11:31:44;47.20;;;31.60;;
10872;SDS011;34586;53.616;10.032;2023-02-15T11:34:19;46.73;;;32.20;;
10872;SDS011;34586;53.616;10.032;2023-02-15T11:36:48;50.57;;;34.47;;
10872;SDS011;34586;53.616;10.032;2023-02-15T11:39:17;46.80;;;32.53;;
10872;SDS011;34586;53.616;10.032;2023-02-15T11:41:47;52.03;;;34.57;;
10872;SDS011;34586;53.616;10.032;2023-02-15T11:44:27;47.53;;;34.70;;
10872;SDS011;34586;53.616;10.032;2023-02-15T11:47:08;52.47;;;35.90;;
10872;SDS011;34586;53.616;10.032;2023-02-15T11:49:36;43.63;;;32.70;;
10872;SDS011;34586;53.616;10.032;2023-02-15T11:52:04;44.57;;;32.80;;
10872;SDS011;34586;53.616;10.032;2023-02-15T11:54:35;47.23;;;33.83;;
10872;SDS011;34586;53.616;10.032;2023-02-15T11:57:13;47.20;;;33.07;;
10872;SDS011;34586;53.616;10.032;2023-02-15T11:59:47;52.67;;;34.80;;
10872;SDS011;34586;53.616;10.032;2023-02-15T12:02:19;48.37;;;34.87;;
10872;SDS011;34586;53.616;10.032;2023-02-15T12:04:51;47.20;;;35.17;;
10872;SDS011;34586;53.616;10.032;2023-02-15T12:07:25;52.00;;;35.70;;
10872;SDS011;34586;53.616;10.032;2023-02-15T12:09:59;50.10;;;35.63;;
10872;SDS011;34586;53.616;10.032;2023-02-15T12:12:32;41.83;;;32.20;;
10872;SDS011;34586;53.616;10.032;2023-02-15T12:15:03;50.20;;;36.13;;
10872;SDS011;34586;53.616;10.032;2023-02-15T12:17:34;46.43;;;33.73;;
10872;SDS011;34586;53.616;10.032;2023-02-15T12:20:04;45.23;;;33.20;;
10872;SDS011;34586;53.616;10.032;2023-02-15T12:25:42;47.37;;;33.27;;
10872;SDS011;34586;53.616;10.032;2023-02-15T12:30:50;50.87;;;34.20;;
10872;SDS011;34586;53.616;10.032;2023-02-15T12:36:20;44.20;;;32.93;;
10872;SDS011;34586;53.616;10.032;2023-02-15T12:42:00;42.60;;;31.87;;
10872;SDS011;34586;53.616;10.032;2023-02-15T12:44:30;46.27;;;32.33;;
10872;SDS011;34586;53.616;10.032;2023-02-15T12:46:58;45.13;;;33.80;;
10872;SDS011;34586;53.616;10.032;2023-02-15T12:51:58;44.23;;;32.23;;
10872;SDS011;34586;53.616;10.032;2023-02-15T12:54:42;38.90;;;29.87;;
10872;SDS011;34586;53.616;10.032;2023-02-15T12:59:54;38.83;;;32.00;;
10872;SDS011;34586;53.616;10.032;2023-02-15T13:02:23;43.27;;;32.00;;
10872;SDS011;34586;53.616;10.032;2023-02-15T13:05:04;43.57;;;31.20;;
10872;SDS011;34586;53.616;10.032;2023-02-15T13:08:00;43.13;;;30.13;;
10872;SDS011;34586;53.616;10.032;2023-02-15T13:10:29;40.97;;;29.60;;
10872;SDS011;34586;53.616;10.032;2023-02-15T13:12:58;40.80;;;30.93;;
10872;SDS011;34586;53.616;10.032;2023-02-15T13:15:32;39.10;;;31.17;;
10872;SDS011;34586;53.616;10.032;2023-02-15T13:18:01;37.93;;;29.10;;
10872;SDS011;34586;53.616;10.032;2023-02-15T13:20:28;38.73;;;29.27;;
10872;SDS011;34586;53.616;10.032;2023-02-15T13:22:58;37.13;;;28.40;;
10872;SDS011;34586;53.616;10.032;2023-02-15T13:25:31;40.80;;;30.00;;
10872;SDS011;34586;53.616;10.032;2023-02-15T13:28:05;39.40;;;29.97;;
10872;SDS011;34586;53.616;10.032;2023-02-15T13:30:36;36.60;;;30.10;;
10872;SDS011;34586;53.616;10.032;2023-02-15T13:33:29;36.17;;;29.07;;
10872;SDS011;34586;53.616;10.032;2023-02-15T13:36:09;38.33;;;30.70;;
10872;SDS011;34586;53.616;10.032;2023-02-15T13:39:29;41.30;;;30.50;;
10872;SDS011;34586;53.616;10.032;2023-02-15T13:44:44;38.53;;;31.10;;
10872;SDS011;34586;53.616;10.032;2023-02-15T13:49:50;38.03;;;30.23;;
10872;SDS011;34586;53.616;10.032;2023-02-15T13:52:38;42.53;;;30.43;;
10872;SDS011;34586;53.616;10.032;2023-02-15T14:00:34;39.60;;;30.67;;
10872;SDS011;34586;53.616;10.032;2023-02-15T14:14:00;40.93;;;31.83;;
10872;SDS011;34586;53.616;10.032;2023-02-15T14:16:49;40.40;;;30.80;;
10872;SDS011;34586;53.616;10.032;2023-02-15T14:25:02;37.23;;;30.93;;
10872;SDS011;34586;53.616;10.032;2023-02-15T14:30:25;40.50;;;31.43;;
10872;SDS011;34586;53.616;10.032;2023-02-15T14:32:55;42.13;;;30.93;;
10872;SDS011;34586;53.616;10.032;2023-02-15T14:35:43;39.13;;;30.40;;
10872;SDS011;34586;53.616;10.032;2023-02-15T14:38:22;40.90;;;30.87;;
10872;SDS011;34586;53.616;10.032;2023-02-15T14:41:19;43.80;;;30.57;;
10872;SDS011;34586;53.616;10.032;2023-02-15T14:49:06;34.37;;;28.97;;
10872;SDS011;34586;53.616;10.032;2023-02-15T14:51:53;35.57;;;29.50;;
10872;SDS011;34586;53.616;10.032;2023-02-15T15:05:12;34.87;;;26.73;;
10872;SDS011;34586;53.616;10.032;2023-02-15T15:07:54;31.07;;;26.40;;
10872;SDS011;34586;53.616;10.032;2023-02-15T15:12:48;38.27;;;29.43;;
10872;SDS011;34586;53.616;10.032;2023-02-15T15:15:32;31.37;;;26.17;;
10872;SDS011;34586;53.616;10.032;2023-02-15T15:18:42;35.07;;;26.27;;
10872;SDS011;34586;53.616;10.032;2023-02-15T15:21:10;31.80;;;26.27;;
10872;SDS011;34586;53.616;10.032;2023-02-15T15:23:40;28.50;;;24.87;;
10872;SDS011;34586;53.616;10.032;2023-02-15T15:26:21;31.27;;;26.63;;
10872;SDS011;34586;53.616;10.032;2023-02-15T15:50:18;28.73;;;24.13;;
10872;SDS011;34586;53.616;10.032;2023-02-15T15:52:49;29.27;;;24.87;;
10872;SDS011;34586;53.616;10.032;2023-02-15T15:55:18;30.07;;;23.80;;
10872;SDS011;34586;53.616;10.032;2023-02-15T15:57:48;28.43;;;23.93;;
10872;SDS011;34586;53.616;10.032;2023-02-15T16:03:21;29.70;;;24.43;;
10872;SDS011;34586;53.616;10.032;2023-02-15T16:05:48;32.03;;;25.27;;
10872;SDS011;34586;53.616;10.032;2023-02-15T16:08:33;34.03;;;25.47;;
10872;SDS011;34586;53.616;10.032;2023-02-15T16:11:11;31.67;;;25.70;;
10872;SDS011;34586;53.616;10.032;2023-02-15T16:13:41;31.00;;;25.77;;
10872;SDS011;34586;53.616;10.032;2023-02-15T16:16:08;35.33;;;27.10;;
10872;SDS011;34586;53.616;10.032;2023-02-15T16:18:37;37.17;;;26.57;;
10872;SDS011;34586;53.616;10.032;2023-02-15T16:21:13;36.17;;;28.30;;
10872;SDS011;34586;53.616;10.032;2023-02-15T16:26:48;35.37;;;28.20;;
10872;SDS011;34586;53.616;10.032;2023-02-15T16:29:26;38.03;;;27.83;;
10872;SDS011;34586;53.616;10.032;2023-02-15T16:32:01;35.77;;;28.10;;
10872;SDS011;34586;53.616;10.032;2023-02-15T16:34:28;32.20;;;26.33;;
10872;SDS011;34586;53.616;10.032;2023-02-15T16:37:16;33.93;;;27.60;;
10872;SDS011;34586;53.616;10.032;2023-02-15T16:39:43;34.97;;;27.67;;
10872;SDS011;34586;53.616;10.032;2023-02-15T16:42:10;33.30;;;26.37;;
10872;SDS011;34586;53.616;10.032;2023-02-15T16:44:38;32.70;;;26.70;;
10872;SDS011;34586;53.616;10.032;2023-02-15T16:47:05;34.33;;;27.60;;
10872;SDS011;34586;53.616;10.032;2023-02-15T16:49:38;33.10;;;26.47;;
10872;SDS011;34586;53.616;10.032;2023-02-15T16:52:12;35.40;;;28.70;;
10872;SDS011;34586;53.616;10.032;2023-02-15T16:54:54;33.50;;;28.37;;
10872;SDS011;34586;53.616;10.032;2023-02-15T16:57:43;32.37;;;25.83;;
10872;SDS011;34586;53.616;10.032;2023-02-15T17:00:17;32.53;;;27.53;;
10872;SDS011;34586;53.616;10.032;2023-02-15T17:05:32;32.40;;;25.93;;
10872;SDS011;34586;53.616;10.032;2023-02-15T17:13:24;31.80;;;26.43;;
10872;SDS011;34586;53.616;10.032;2023-02-15T17:18:26;34.30;;;26.77;;
10872;SDS011;34586;53.616;10.032;2023-02-15T17:21:10;35.70;;;29.03;;
10872;SDS011;34586;53.616;10.032;2023-02-15T17:23:42;41.00;;;28.87;;
10872;SDS011;34586;53.616;10.032;2023-02-15T17:26:11;35.33;;;27.47;;
10872;SDS011;34586;53.616;10.032;2023-02-15T17:28:40;34.53;;;27.00;;
10872;SDS011;34586;53.616;10.032;2023-02-15T17:31:12;39.23;;;28.40;;
10872;SDS011;34586;53.616;10.032;2023-02-15T17:33:41;38.50;;;28.90;;
10872;SDS011;34586;53.616;10.032;2023-02-15T17:39:17;37.50;;;30.03;;
10872;SDS011;34586;53.616;10.032;2023-02-15T17:41:43;35.23;;;26.67;;
10872;SDS011;34586;53.616;10.032;2023-02-15T17:44:09;34.87;;;26.87;;
10872;SDS011;34586;53.616;10.032;2023-02-15T17:46:39;34.70;;;26.63;;
10872;SDS011;34586;53.616;10.032;2023-02-15T17:49:05;33.93;;;26.90;;
10872;SDS011;34586;53.616;10.032;2023-02-15T17:51:31;32.83;;;27.63;;
10872;SDS011;34586;53.616;10.032;2023-02-15T17:54:00;36.93;;;28.70;;
10872;SDS011;34586;53.616;10.032;2023-02-15T17:56:45;34.50;;;27.50;;
10872;SDS011;34586;53.616;10.032;2023-02-15T17:59:11;37.63;;;29.60;;
10872;SDS011;34586;53.616;10.032;2023-02-15T18:01:40;36.63;;;28.50;;
10872;SDS011;34586;53.616;10.032;2023-02-15T18:04:30;36.40;;;28.10;;
10872;SDS011;34586;53.616;10.032;2023-02-15T18:07:17;36.03;;;28.17;;
10872;SDS011;34586;53.616;10.032;2023-02-15T18:10:13;35.80;;;28.20;;